Time;durP1;ratioP1;P1;durP2;ratioP2;P2;SDS_P1;SDS_P2;PMS_P1;PMS_P2;Temp;Humidity;BMP_temperature;BMP_pressure;BME280_temperature;BME280_humidity;BME280_pressure;Samples;Min_cycle;Max_cycle;Signal;HPM_P1;HPM_P2
2022/08/04 00:00:04;;;;;;;6.25;5.65;;;21.40;99.90;;;;;;2603749;54;20117;31
2022/08/04 00:02:38;;;;;;;5.70;5.05;;;21.50;99.90;;;;;;2603559;54;20085;31
2022/08/04 00:05:18;;;;;;;8.07;5.50;;;21.40;99.90;;;;;;2603558;54;19939;31
2022/08/04 00:07:57;;;;;;;6.13;5.53;;;21.30;99.90;;;;;;2603703;54;20169;31
2022/08/04 00:10:33;;;;;;;6.85;5.80;;;21.20;99.90;;;;;;2603538;54;20027;31
2022/08/04 00:13:11;;;;;;;8.65;6.05;;;21.20;99.90;;;;;;2603515;54;20031;31
2022/08/04 00:15:46;;;;;;;8.98;5.70;;;21.20;99.90;;;;;;2603509;54;20870;31
2022/08/04 00:18:21;;;;;;;5.95;5.38;;;21.10;99.90;;;;;;2603465;54;20855;31
2022/08/04 00:20:56;;;;;;;6.20;5.27;;;21.10;99.90;;;;;;2603675;54;20033;31
2022/08/04 00:23:31;;;;;;;10.20;6.63;;;21.00;99.90;;;;;;2603520;54;20246;31
2022/08/04 00:26:26;;;;;;;6.95;6.10;;;21.00;99.90;;;;;;2603582;54;20949;31
2022/08/04 00:29:07;;;;;;;7.15;5.20;;;21.00;99.90;;;;;;2622041;46;20029;31
2022/08/04 00:31:43;;;;;;;6.25;5.65;;;20.90;99.90;;;;;;2603373;54;20935;31
2022/08/04 00:34:31;;;;;;;6.32;5.55;;;20.90;99.90;;;;;;2603614;54;20042;31
2022/08/04 00:37:06;;;;;;;6.05;5.55;;;20.90;99.90;;;;;;2603528;54;20089;31
2022/08/04 00:39:40;;;;;;;6.73;6.03;;;20.80;99.90;;;;;;2720431;39;20520;31
2022/08/04 00:42:28;;;;;;;6.65;5.72;;;20.80;99.90;;;;;;2603666;54;20113;31
2022/08/04 00:45:24;;;;;;;6.82;5.70;;;20.80;99.90;;;;;;2603592;54;20026;31
2022/08/04 00:48:07;;;;;;;9.35;5.97;;;20.70;99.90;;;;;;2603388;54;20030;31
2022/08/04 00:53:21;;;;;;;7.95;6.28;;;20.70;99.90;;;;;;2603468;54;20845;31
2022/08/04 00:56:20;;;;;;;8.07;6.18;;;20.60;99.90;;;;;;2621510;46;20945;31
2022/08/04 00:58:54;;;;;;;7.30;6.60;;;20.50;99.90;;;;;;2621605;46;20049;31
2022/08/04 01:01:44;;;;;;;9.52;7.47;;;20.50;99.90;;;;;;2603497;54;20329;31
2022/08/04 01:04:22;;;;;;;7.65;6.75;;;20.40;99.90;;;;;;2603348;54;20026;31
2022/08/04 01:07:09;;;;;;;8.43;7.03;;;20.40;99.90;;;;;;2603437;54;20071;31
2022/08/04 01:09:48;;;;;;;7.60;6.90;;;20.40;99.90;;;;;;2621462;46;20089;31
2022/08/04 01:12:51;;;;;;;9.15;6.68;;;20.40;99.90;;;;;;2603398;54;20248;31
2022/08/04 01:15:28;;;;;;;8.75;6.75;;;20.30;99.90;;;;;;2603366;54;20824;31
2022/08/04 01:18:10;;;;;;;10.93;6.90;;;20.30;99.90;;;;;;2603293;54;20861;31
2022/08/04 01:20:50;;;;;;;8.17;6.30;;;20.30;99.90;;;;;;2621496;46;20031;31
2022/08/04 01:26:23;;;;;;;8.83;7.53;;;20.20;99.90;;;;;;2603206;54;20145;31
2022/08/04 01:29:25;;;;;;;8.50;7.18;;;20.10;99.90;;;;;;2603058;54;20810;31
2022/08/04 01:34:53;;;;;;;8.43;7.63;;;20.00;99.90;;;;;;2603065;54;20628;31
2022/08/04 01:37:35;;;;;;;11.00;8.05;;;20.00;99.90;;;;;;2603100;54;20034;31
2022/08/04 01:40:10;;;;;;;9.65;7.00;;;20.00;99.90;;;;;;2603279;54;20936;31
2022/08/04 01:42:45;;;;;;;8.82;7.60;;;19.90;99.90;;;;;;2603309;54;20912;31
2022/08/04 01:45:22;;;;;;;9.40;7.30;;;19.80;99.90;;;;;;2603292;54;19954;31
2022/08/04 01:47:59;;;;;;;8.20;7.40;;;19.90;99.90;;;;;;2603312;54;20593;31
2022/08/04 01:50:37;;;;;;;8.88;7.28;;;19.80;99.90;;;;;;2603113;54;20042;31
2022/08/04 01:53:14;;;;;;;9.25;7.53;;;19.80;99.90;;;;;;2603215;54;20069;31
2022/08/04 01:55:48;;;;;;;8.50;7.30;;;19.80;99.90;;;;;;2603094;54;20628;31
2022/08/04 01:58:28;;;;;;;10.10;7.70;;;19.70;99.90;;;;;;2772825;31;20639;31
2022/08/04 02:01:06;;;;;;;9.07;7.40;;;19.70;99.90;;;;;;2603055;54;20932;31
2022/08/04 02:03:43;;;;;;;8.80;8.00;;;19.60;99.90;;;;;;2603029;54;21006;31
2022/08/04 02:06:42;;;;;;;8.30;7.53;;;19.60;99.90;;;;;;2602872;54;20045;31
2022/08/04 02:09:19;;;;;;;10.38;8.43;;;19.60;99.90;;;;;;2603211;54;20030;31
2022/08/04 02:12:03;;;;;;;9.50;7.25;;;19.60;99.90;;;;;;2603013;54;20046;31
2022/08/04 02:14:44;;;;;;;10.85;7.22;;;19.50;99.90;;;;;;2603127;54;20862;31
2022/08/04 02:17:30;;;;;;;9.85;7.93;;;19.50;99.90;;;;;;2603246;54;20036;31
2022/08/04 02:20:10;;;;;;;9.43;7.72;;;19.50;99.90;;;;;;2621721;47;20100;31
2022/08/04 02:22:48;;;;;;;7.20;6.53;;;19.50;99.90;;;;;;2621450;47;20883;31
2022/08/04 02:25:24;;;;;;;8.02;7.22;;;19.40;99.90;;;;;;2603169;54;20031;31
2022/08/04 02:28:11;;;;;;;9.45;7.90;;;19.40;99.90;;;;;;2602930;54;20021;31
2022/08/04 02:30:49;;;;;;;10.15;7.82;;;19.40;99.90;;;;;;2602919;54;20030;31
2022/08/04 02:33:30;;;;;;;10.07;7.38;;;19.40;99.90;;;;;;2603005;54;20932;31
2022/08/04 02:36:07;;;;;;;8.82;7.97;;;19.30;99.90;;;;;;2602961;54;20128;31
2022/08/04 02:38:54;;;;;;;8.65;7.40;;;19.30;99.90;;;;;;2603151;54;20031;31
2022/08/04 02:41:31;;;;;;;7.60;6.90;;;19.30;99.90;;;;;;2603250;54;20051;31
2022/08/04 02:44:06;;;;;;;8.95;7.95;;;19.30;99.90;;;;;;2602917;54;20092;31
2022/08/04 02:46:43;;;;;;;8.90;8.10;;;19.20;99.90;;;;;;2602979;54;20215;31
2022/08/04 02:49:21;;;;;;;9.00;8.20;;;19.20;99.90;;;;;;2603244;54;20474;31
2022/08/04 02:51:57;;;;;;;11.63;8.53;;;19.20;99.90;;;;;;2602834;54;20046;31
2022/08/04 02:54:35;;;;;;;12.63;9.00;;;19.20;99.90;;;;;;2621398;47;20032;31
2022/08/04 02:57:14;;;;;;;9.27;8.38;;;19.20;99.90;;;;;;2621105;47;20056;31
2022/08/04 02:59:56;;;;;;;9.30;8.48;;;19.10;99.90;;;;;;2621425;47;20914;31
2022/08/04 03:02:41;;;;;;;9.27;8.47;;;19.10;99.90;;;;;;2602878;54;20116;31
2022/08/04 03:05:15;;;;;;;11.15;8.75;;;19.10;99.90;;;;;;2602803;54;20797;31
2022/08/04 03:08:25;;;;;;;11.80;9.23;;;19.00;99.90;;;;;;2621329;47;20042;31
2022/08/04 03:11:18;;;;;;;9.40;8.50;;;19.00;99.90;;;;;;2602568;54;20971;31
2022/08/04 03:14:23;;;;;;;8.93;8.02;;;19.00;99.90;;;;;;2603051;54;20901;31
2022/08/04 03:17:17;;;;;;;10.25;8.85;;;19.00;99.90;;;;;;2701218;39;20492;31
2022/08/04 03:20:08;;;;;;;10.68;8.90;;;19.00;99.90;;;;;;2603464;54;20816;31
2022/08/04 03:23:11;;;;;;;10.38;8.02;;;18.90;99.90;;;;;;2622155;46;20887;31
2022/08/04 03:28:59;;;;;;;10.77;9.68;;;18.90;99.90;;;;;;2603506;54;20947;31
2022/08/04 03:31:58;;;;;;;11.40;9.00;;;18.80;99.90;;;;;;2603830;54;20035;31
2022/08/04 03:34:45;;;;;;;11.10;9.98;;;18.90;99.90;;;;;;2603334;54;20853;31
2022/08/04 03:40:16;;;;;;;10.87;9.67;;;18.80;99.90;;;;;;2603684;54;20080;31
2022/08/04 03:43:09;;;;;;;12.90;9.48;;;18.80;99.90;;;;;;2603518;54;20592;31
2022/08/04 03:46:41;;;;;;;10.50;9.48;;;18.80;99.90;;;;;;2603462;54;20031;31
2022/08/04 03:49:39;;;;;;;11.70;8.20;;;18.80;99.90;;;;;;2603610;54;20030;31
2022/08/04 03:55:32;;;;;;;9.25;8.00;;;19.00;99.90;;;;;;2603755;54;20073;31
2022/08/04 03:58:34;;;;;;;10.32;9.38;;;18.90;99.90;;;;;;2603543;54;20085;31
2022/08/04 04:01:15;;;;;;;10.73;8.88;;;19.00;99.90;;;;;;2603608;54;20951;31
2022/08/04 04:04:16;;;;;;;12.83;8.43;;;19.10;99.90;;;;;;2603509;54;20049;31
2022/08/04 04:07:03;;;;;;;12.15;9.88;;;19.30;99.90;;;;;;2603511;54;21021;31
2022/08/04 04:10:21;;;;;;;9.85;8.55;;;19.40;99.90;;;;;;2603507;54;20038;31
2022/08/04 04:13:19;;;;;;;12.73;8.17;;;19.50;99.90;;;;;;2603414;54;20969;31
2022/08/04 04:16:02;;;;;;;10.90;8.40;;;19.70;99.90;;;;;;2621927;46;20305;31
2022/08/04 04:18:54;;;;;;;11.65;9.15;;;19.80;99.90;;;;;;2603465;54;20034;31
2022/08/04 04:21:38;;;;;;;10.65;8.68;;;20.10;99.90;;;;;;2621648;46;20875;31
2022/08/04 04:24:32;;;;;;;10.20;8.43;;;20.20;99.90;;;;;;2603341;54;20033;31
2022/08/04 04:27:11;;;;;;;10.10;8.60;;;20.40;99.90;;;;;;2603413;54;20811;31
2022/08/04 04:30:02;;;;;;;10.40;9.00;;;20.60;99.90;;;;;;2603568;54;20037;31
2022/08/04 04:32:58;;;;;;;10.98;8.48;;;20.70;99.90;;;;;;2603365;54;20884;31
2022/08/04 04:35:37;;;;;;;11.70;8.98;;;20.90;99.90;;;;;;2701836;39;20497;31
2022/08/04 04:38:37;;;;;;;12.65;9.55;;;21.10;99.90;;;;;;2603428;54;20854;31
2022/08/04 04:41:23;;;;;;;11.15;9.80;;;21.20;99.90;;;;;;2603422;54;20931;31
2022/08/04 04:44:28;;;;;;;12.90;10.13;;;21.50;99.90;;;;;;2603556;54;20085;31
2022/08/04 04:47:10;;;;;;;10.37;9.37;;;21.60;99.90;;;;;;2603404;54;20948;31
2022/08/04 04:49:50;;;;;;;10.68;9.10;;;21.60;99.90;;;;;;2603598;54;20890;31
2022/08/04 04:52:28;;;;;;;12.30;9.10;;;21.90;99.90;;;;;;2603382;54;20093;31
2022/08/04 04:55:10;;;;;;;11.80;9.70;;;22.10;99.90;;;;;;2603386;54;20053;31
2022/08/04 04:57:45;;;;;;;10.45;9.15;;;22.40;99.90;;;;;;2603444;54;20049;31
2022/08/04 05:00:28;;;;;;;13.02;8.90;;;22.60;99.90;;;;;;2603458;54;20027;31
2022/08/04 05:03:18;;;;;;;11.20;9.00;;;22.80;99.90;;;;;;2702053;39;20473;31
2022/08/04 05:06:17;;;;;;;9.77;8.77;;;23.00;99.90;;;;;;2603420;54;20046;31
2022/08/04 05:09:14;;;;;;;11.15;9.52;;;23.20;99.90;;;;;;2603201;54;20027;31
2022/08/04 05:11:48;;;;;;;12.50;9.17;;;23.50;99.90;;;;;;2603348;54;20026;31
2022/08/04 05:14:30;;;;;;;12.82;9.18;;;23.70;99.90;;;;;;2603573;54;20909;31
2022/08/04 05:17:12;;;;;;;13.95;9.10;;;23.90;99.90;;;;;;2603252;54;20046;31
2022/08/04 05:19:53;;;;;;;12.03;9.13;;;24.00;99.90;;;;;;2603048;54;20099;31
2022/08/04 05:22:34;;;;;;;11.10;8.73;;;24.10;99.90;;;;;;2603288;54;20804;31
2022/08/04 05:25:16;;;;;;;11.30;10.10;;;24.20;99.90;;;;;;2603230;54;20030;31
2022/08/04 05:27:53;;;;;;;10.30;9.30;;;24.40;99.90;;;;;;2701865;39;20602;31
2022/08/04 05:30:32;;;;;;;9.67;8.77;;;24.60;99.90;;;;;;2621986;46;20037;31
2022/08/04 05:33:12;;;;;;;14.23;9.25;;;24.70;99.90;;;;;;2603055;54;20829;31
2022/08/04 05:35:48;;;;;;;14.70;9.30;;;24.80;99.90;;;;;;2603635;54;20042;31
2022/08/04 05:38:44;;;;;;;10.90;8.90;;;24.80;99.90;;;;;;2603449;54;20601;31
2022/08/04 05:41:18;;;;;;;8.95;8.00;;;24.90;99.90;;;;;;2603032;54;20132;31
2022/08/04 05:43:53;;;;;;;8.65;7.85;;;24.90;99.90;;;;;;2621672;46;20046;31
2022/08/04 05:46:30;;;;;;;8.77;7.77;;;24.90;99.90;;;;;;2603185;54;20045;31
2022/08/04 05:49:05;;;;;;;8.10;7.30;;;25.10;99.90;;;;;;2603337;54;20250;31
2022/08/04 05:51:40;;;;;;;7.95;7.18;;;25.20;99.90;;;;;;2603347;54;20030;31
2022/08/04 05:54:19;;;;;;;10.15;7.85;;;25.40;99.90;;;;;;2621821;46;20037;31
2022/08/04 05:56:54;;;;;;;12.50;8.13;;;25.50;99.90;;;;;;2603368;54;20073;31
2022/08/04 05:59:30;;;;;;;7.40;6.70;;;25.60;99.90;;;;;;2603384;54;20057;31
2022/08/04 06:02:07;;;;;;;9.70;7.78;;;25.70;99.90;;;;;;2603265;54;20085;31
2022/08/04 06:04:45;;;;;;;9.45;7.20;;;25.90;99.90;;;;;;2603319;54;20620;31
2022/08/04 06:07:21;;;;;;;10.20;7.30;;;26.00;99.90;;;;;;2603066;54;20113;31
2022/08/04 06:09:59;;;;;;;8.43;6.72;;;26.00;99.90;;;;;;2603170;54;20332;31
2022/08/04 06:12:39;;;;;;;10.55;7.00;;;26.20;99.90;;;;;;2603106;54;20085;31
2022/08/04 06:15:12;;;;;;;9.40;6.65;;;26.50;99.90;;;;;;2621548;46;20050;31
2022/08/04 06:17:57;;;;;;;12.20;7.10;;;26.70;99.90;;;;;;2603182;54;20031;31
2022/08/04 06:20:54;;;;;;;12.10;6.72;;;26.90;99.90;;;;;;2603012;54;20033;31
2022/08/04 06:23:29;;;;;;;11.07;7.13;;;27.00;99.90;;;;;;2603168;54;20031;31
2022/08/04 06:26:05;;;;;;;12.13;7.18;;;27.20;99.90;;;;;;2602885;54;20776;31
2022/08/04 06:28:43;;;;;;;9.25;7.90;;;27.50;99.90;;;;;;2602943;54;20030;31
2022/08/04 06:31:30;;;;;;;8.50;7.50;;;27.50;99.90;;;;;;2602801;54;20160;31
2022/08/04 06:34:28;;;;;;;8.00;6.65;;;27.60;99.90;;;;;;2602873;54;20949;31
2022/08/04 06:37:03;;;;;;;10.50;6.40;;;27.70;99.90;;;;;;2621319;47;20806;31
2022/08/04 06:39:39;;;;;;;13.48;6.15;;;27.80;99.90;;;;;;2603081;54;20891;31
2022/08/04 06:42:16;;;;;;;7.50;6.40;;;28.10;99.90;;;;;;2602777;54;20038;31
2022/08/04 06:44:59;;;;;;;7.47;6.57;;;28.20;99.90;;;;;;2621411;47;20898;31
2022/08/04 06:47:34;;;;;;;9.57;6.32;;;28.10;99.90;;;;;;2602642;54;20584;31
2022/08/04 06:50:12;;;;;;;11.20;6.40;;;28.40;99.90;;;;;;2602682;54;20030;31
2022/08/04 06:53:06;;;;;;;9.47;6.50;;;28.60;99.90;;;;;;2603227;54;20026;31
2022/08/04 06:55:41;;;;;;;8.43;6.37;;;28.60;99.90;;;;;;2622395;46;20246;31
2022/08/04 06:58:18;;;;;;;8.27;6.05;;;28.70;99.90;;;;;;2603597;54;20941;31
2022/08/04 07:00:52;;;;;;;15.85;6.28;;;28.80;99.90;;;;;;2621919;46;20831;31
2022/08/04 07:03:30;;;;;;;6.70;6.00;;;28.90;99.90;;;;;;2603938;54;20038;31
2022/08/04 07:06:07;;;;;;;7.33;6.03;;;29.20;99.90;;;;;;2603783;54;20066;31
2022/08/04 07:08:48;;;;;;;12.68;6.30;;;29.40;99.90;;;;;;2603816;54;20049;31
2022/08/04 07:11:28;;;;;;;9.15;6.05;;;29.60;99.90;;;;;;2603802;54;20917;31
2022/08/04 07:14:17;;;;;;;7.55;6.15;;;29.80;99.90;;;;;;2603579;54;20959;31
2022/08/04 07:16:52;;;;;;;9.82;5.93;;;30.00;99.90;;;;;;2603720;54;20038;31
2022/08/04 07:19:28;;;;;;;7.65;5.85;;;30.10;99.90;;;;;;2603516;54;20053;31
2022/08/04 07:22:09;;;;;;;8.97;6.50;;;30.20;99.90;;;;;;2603705;54;20030;31
2022/08/04 07:24:58;;;;;;;8.32;5.57;;;30.40;99.90;;;;;;2622246;46;20948;31
2022/08/04 07:27:34;;;;;;;14.43;6.13;;;30.60;99.90;;;;;;2603519;54;20916;31
2022/08/04 07:30:22;;;;;;;13.10;6.32;;;30.90;99.90;;;;;;2622218;46;20952;31
2022/08/04 07:33:02;;;;;;;8.15;5.80;;;31.00;99.90;;;;;;2603509;54;20030;31
2022/08/04 07:35:36;;;;;;;8.02;5.80;;;31.20;99.80;;;;;;2603978;54;20061;31
2022/08/04 07:38:34;;;;;;;6.00;5.00;;;31.30;99.50;;;;;;2603444;54;20030;31
2022/08/04 07:41:13;;;;;;;9.48;5.65;;;31.40;99.90;;;;;;2603657;54;20073;31
2022/08/04 07:44:08;;;;;;;20.57;18.37;;;31.60;99.40;;;;;;2603626;54;20093;31
2022/08/04 07:46:43;;;;;;;85.35;77.82;;;31.70;98.60;;;;;;2621918;46;20086;31
2022/08/04 07:49:19;;;;;;;11.13;8.27;;;31.90;98.30;;;;;;2603579;54;20030;31
2022/08/04 07:52:13;;;;;;;6.00;5.40;;;31.80;97.30;;;;;;2603720;54;20815;31
2022/08/04 07:54:52;;;;;;;11.30;10.10;;;32.00;96.60;;;;;;2603484;54;20033;31
2022/08/04 07:57:27;;;;;;;7.32;6.63;;;32.00;96.00;;;;;;2603538;54;20061;31
2022/08/04 08:00:16;;;;;;;9.38;6.68;;;32.00;96.10;;;;;;2603661;54;20093;31
2022/08/04 08:02:52;;;;;;;8.33;7.43;;;32.00;96.20;;;;;;2603896;54;20046;31
2022/08/04 08:05:28;;;;;;;8.30;6.60;;;32.00;95.80;;;;;;2603284;54;20038;31
2022/08/04 08:08:05;;;;;;;8.65;5.80;;;31.90;94.90;;;;;;2720781;39;21588;31
2022/08/04 08:10:47;;;;;;;12.38;7.63;;;31.90;95.30;;;;;;2603593;54;20033;31
2022/08/04 08:13:22;;;;;;;10.13;5.38;;;32.00;95.40;;;;;;2603830;54;20026;31
2022/08/04 08:15:58;;;;;;;33.83;29.30;;;32.00;94.20;;;;;;2603517;54;20034;31
2022/08/04 08:18:34;;;;;;;9.68;8.13;;;32.00;94.40;;;;;;2702249;39;21075;31
2022/08/04 08:21:09;;;;;;;14.25;10.80;;;32.00;94.00;;;;;;2603400;54;20093;31
2022/08/04 08:23:46;;;;;;;9.85;7.22;;;32.00;94.40;;;;;;2603319;54;20866;31
2022/08/04 08:26:24;;;;;;;6.60;6.00;;;32.10;93.90;;;;;;2603425;54;20886;31
2022/08/04 08:29:01;;;;;;;6.13;5.43;;;32.20;94.00;;;;;;2621987;46;20030;31
2022/08/04 08:31:36;;;;;;;9.10;5.90;;;32.30;94.10;;;;;;2603468;54;20109;31
2022/08/04 08:34:31;;;;;;;8.65;5.40;;;32.40;94.00;;;;;;2603541;54;20875;31
2022/08/04 08:37:06;;;;;;;8.20;6.40;;;32.50;93.40;;;;;;2603299;54;20077;31
2022/08/04 08:39:42;;;;;;;8.25;5.30;;;32.50;92.90;;;;;;2603508;54;20026;31
2022/08/04 08:42:47;;;;;;;6.25;5.65;;;32.50;92.20;;;;;;2621812;46;20051;31
2022/08/04 08:45:20;;;;;;;6.60;5.50;;;32.60;93.30;;;;;;2621874;46;20953;31
2022/08/04 08:48:27;;;;;;;7.93;5.85;;;32.70;92.10;;;;;;2603473;54;20084;31
2022/08/04 08:51:17;;;;;;;;;;;32.70;92.30;;;;;;2603633;54;20038;31
2022/08/04 08:54:16;;;;;;;7.25;5.85;;;32.90;92.20;;;;;;2621855;46;19948;31
2022/08/04 08:57:02;;;;;;;7.53;5.22;;;33.00;92.70;;;;;;2603152;54;20034;31
2022/08/04 08:59:47;;;;;;;7.78;6.18;;;33.20;92.80;;;;;;2603577;54;20112;31
2022/08/04 09:02:40;;;;;;;8.35;5.75;;;33.40;92.50;;;;;;2603439;54;20109;31
2022/08/04 09:05:26;;;;;;;6.22;5.63;;;33.50;92.00;;;;;;2603305;54;20597;31
2022/08/04 09:08:15;;;;;;;7.90;6.10;;;33.50;91.10;;;;;;2603277;54;20141;31
2022/08/04 09:10:50;;;;;;;7.83;7.13;;;33.30;91.40;;;;;;2603316;54;20042;31
2022/08/04 09:13:26;;;;;;;6.93;6.22;;;33.30;91.50;;;;;;2621718;46;20030;31
2022/08/04 09:16:06;;;;;;;7.72;5.20;;;33.30;91.10;;;;;;2603051;54;20030;31
2022/08/04 09:18:47;;;;;;;8.40;6.10;;;33.40;90.80;;;;;;2603571;54;20046;31
2022/08/04 09:21:28;;;;;;;6.45;5.95;;;33.50;90.30;;;;;;2603446;54;20806;31
2022/08/04 09:24:05;;;;;;;7.10;6.40;;;33.40;89.80;;;;;;2603425;54;20026;31
2022/08/04 09:27:02;;;;;;;6.05;5.47;;;33.40;90.30;;;;;;2622131;46;20052;31
2022/08/04 09:29:39;;;;;;;6.43;5.88;;;33.40;90.40;;;;;;2603336;54;20028;31
2022/08/04 09:32:23;;;;;;;6.25;5.60;;;33.50;90.00;;;;;;2603237;54;20089;31
2022/08/04 09:35:09;;;;;;;7.22;5.90;;;33.40;89.90;;;;;;2603639;54;20885;31
2022/08/04 09:37:54;;;;;;;8.75;5.82;;;33.30;88.10;;;;;;2603216;54;20048;31
2022/08/04 09:40:30;;;;;;;6.33;5.53;;;33.40;90.10;;;;;;2603309;54;20089;31
2022/08/04 09:43:34;;;;;;;6.45;5.85;;;33.40;90.00;;;;;;2603243;54;20789;31
2022/08/04 09:46:31;;;;;;;6.00;5.40;;;33.40;89.80;;;;;;2603252;54;20938;31
2022/08/04 09:49:13;;;;;;;4.30;4.00;;;33.40;86.90;;;;;;2603410;54;19934;31
2022/08/04 09:51:55;;;;;;;7.95;5.10;;;33.50;88.20;;;;;;2701830;39;20454;31
2022/08/04 09:54:33;;;;;;;4.38;3.97;;;33.60;88.20;;;;;;2603344;54;20026;31
2022/08/04 09:57:13;;;;;;;4.55;4.15;;;33.80;87.30;;;;;;2603299;54;20027;31
2022/08/04 09:59:55;;;;;;;5.95;4.10;;;33.70;84.60;;;;;;2621643;46;20030;31
2022/08/04 10:02:35;;;;;;;4.75;4.05;;;33.80;85.60;;;;;;2603032;54;20058;31
2022/08/04 10:05:11;;;;;;;7.40;3.92;;;33.70;85.10;;;;;;2621541;46;20652;31
2022/08/04 10:08:04;;;;;;;4.37;3.97;;;33.70;85.40;;;;;;2602931;54;20069;31
2022/08/04 10:10:58;;;;;;;6.65;4.22;;;33.90;84.50;;;;;;2603144;54;20646;31
2022/08/04 10:13:43;;;;;;;4.73;3.97;;;33.90;84.20;;;;;;2603188;54;20109;31
2022/08/04 10:16:37;;;;;;;4.72;2.92;;;33.80;83.50;;;;;;2603254;54;20030;31
2022/08/04 10:19:20;;;;;;;3.65;3.00;;;33.80;80.30;;;;;;2603041;54;20089;31
2022/08/04 10:22:03;;;;;;;6.05;3.83;;;33.70;79.80;;;;;;2603273;54;20888;31
2022/08/04 10:25:04;;;;;;;;;;;33.70;81.60;;;;;;2603204;54;20113;31
2022/08/04 10:28:05;;;;;;;3.85;2.97;;;33.70;80.90;;;;;;2603272;54;20822;31
2022/08/04 10:30:41;;;;;;;3.55;3.13;;;33.80;80.30;;;;;;2603721;54;20081;31
2022/08/04 10:33:23;;;;;;;4.13;2.57;;;33.90;79.60;;;;;;2622405;46;20033;31
2022/08/04 10:36:03;;;;;;;6.13;4.20;;;33.90;78.40;;;;;;2603972;54;20026;31
2022/08/04 10:38:40;;;;;;;4.20;3.75;;;33.70;79.30;;;;;;2603740;54;20038;31
2022/08/04 10:41:19;;;;;;;5.22;4.22;;;33.70;80.00;;;;;;2603949;54;20158;31
2022/08/04 10:44:03;;;;;;;5.50;3.40;;;33.60;81.10;;;;;;2622418;46;20852;31
2022/08/04 10:46:41;;;;;;;5.05;3.50;;;33.60;80.70;;;;;;2622816;46;20073;31
2022/08/04 10:49:26;;;;;;;4.25;3.85;;;33.60;80.80;;;;;;2603685;54;20857;31
2022/08/04 10:54:46;;;;;;;4.70;4.30;;;33.60;81.50;;;;;;2604094;54;20964;31
2022/08/04 10:57:26;;;;;;;5.18;3.30;;;33.70;81.80;;;;;;2603652;54;20806;31
2022/08/04 11:00:07;;;;;;;6.15;3.45;;;33.70;80.30;;;;;;2622444;46;20030;31
2022/08/04 11:02:45;;;;;;;4.03;3.63;;;33.70;80.70;;;;;;2603837;54;20861;31
2022/08/04 11:05:20;;;;;;;4.65;3.65;;;33.70;81.30;;;;;;2622289;46;20058;31
2022/08/04 11:07:58;;;;;;;5.35;3.78;;;33.70;80.60;;;;;;2603911;54;20026;31
2022/08/04 11:10:37;;;;;;;4.45;3.20;;;33.70;81.30;;;;;;2603735;54;20593;31
2022/08/04 11:13:13;;;;;;;7.30;3.60;;;33.70;80.40;;;;;;2603698;54;20054;31
2022/08/04 11:16:09;;;;;;;4.68;4.00;;;33.60;79.70;;;;;;2603688;54;20019;31
2022/08/04 11:18:48;;;;;;;6.33;3.23;;;33.50;80.50;;;;;;2603695;54;20924;31
2022/08/04 11:21:26;;;;;;;3.97;3.10;;;33.40;79.80;;;;;;2622202;46;20964;31
2022/08/04 11:24:04;;;;;;;4.80;3.20;;;33.40;81.50;;;;;;2702365;39;21347;31
2022/08/04 11:26:43;;;;;;;3.53;3.23;;;33.50;80.40;;;;;;2603745;54;20039;31
2022/08/04 11:29:21;;;;;;;7.57;3.60;;;33.40;80.90;;;;;;2622163;46;20034;31
2022/08/04 11:32:01;;;;;;;5.35;3.78;;;33.60;80.70;;;;;;2603659;54;20258;31
2022/08/04 11:34:37;;;;;;;6.60;3.90;;;33.50;79.90;;;;;;2603725;54;20022;31
2022/08/04 11:37:15;;;;;;;5.90;3.97;;;33.50;80.60;;;;;;2603760;54;20839;31
2022/08/04 11:39:53;;;;;;;5.50;3.57;;;33.50;81.10;;;;;;2603424;54;19958;31
2022/08/04 11:42:32;;;;;;;4.38;3.53;;;33.40;79.70;;;;;;2622579;46;20122;31
2022/08/04 11:45:09;;;;;;;3.45;3.15;;;33.30;79.90;;;;;;2603900;54;20023;31
2022/08/04 11:47:50;;;;;;;3.70;3.40;;;33.30;80.60;;;;;;2603825;54;20065;31
2022/08/04 11:50:29;;;;;;;6.22;3.05;;;33.40;80.60;;;;;;2603493;54;20033;31
2022/08/04 11:53:04;;;;;;;4.82;4.00;;;33.40;79.80;;;;;;2603472;54;20026;31
2022/08/04 11:55:42;;;;;;;5.20;3.60;;;33.40;80.90;;;;;;2603747;54;20792;31
2022/08/04 11:58:38;;;;;;;4.18;3.10;;;33.30;79.80;;;;;;2603446;54;20057;31
2022/08/04 12:01:14;;;;;;;;;;;33.30;79.80;;;;;;2603754;54;20855;31
2022/08/04 12:04:02;;;;;;;4.87;4.33;;;33.30;80.40;;;;;;2702185;39;20333;31
2022/08/04 12:06:41;;;;;;;4.25;3.85;;;33.30;80.50;;;;;;2603570;54;20569;31
2022/08/04 12:09:36;;;;;;;4.60;4.20;;;33.40;81.10;;;;;;2603468;54;20974;31
2022/08/04 12:12:15;;;;;;;6.80;4.30;;;33.20;80.60;;;;;;2622217;46;20034;31
2022/08/04 12:14:53;;;;;;;6.07;3.88;;;33.10;80.70;;;;;;2603689;54;20057;31
2022/08/04 12:17:31;;;;;;;4.72;4.22;;;33.10;81.90;;;;;;2603277;54;20031;31
2022/08/04 12:20:31;;;;;;;4.85;4.30;;;33.10;82.20;;;;;;2604488;46;20115;31
2022/08/04 12:23:19;;;;;;;5.72;3.75;;;33.10;80.90;;;;;;2603548;54;20435;31
2022/08/04 12:25:57;;;;;;;6.03;4.47;;;33.10;80.30;;;;;;2603462;54;20035;31
2022/08/04 12:28:35;;;;;;;4.63;4.13;;;32.90;79.80;;;;;;2603683;54;20026;31
2022/08/04 12:31:31;;;;;;;3.85;3.50;;;32.90;80.80;;;;;;2603498;54;20904;31
2022/08/04 12:34:08;;;;;;;4.07;3.67;;;32.90;81.20;;;;;;2603503;54;20033;31
2022/08/04 12:36:52;;;;;;;7.15;4.25;;;33.00;82.40;;;;;;2621585;46;21409;31
2022/08/04 12:39:29;;;;;;;4.13;3.70;;;33.00;80.90;;;;;;2603562;54;25136;31
2022/08/04 12:42:09;;;;;;;7.68;4.07;;;33.00;81.70;;;;;;2603335;54;21026;31
2022/08/04 12:44:46;;;;;;;5.70;3.53;;;33.10;81.20;;;;;;2603358;54;20044;31
2022/08/04 12:47:25;;;;;;;4.70;3.35;;;33.20;81.30;;;;;;2603301;54;20080;31
2022/08/04 12:50:07;;;;;;;4.50;4.05;;;33.20;80.40;;;;;;2603646;54;20900;31
2022/08/04 12:52:49;;;;;;;4.60;3.70;;;33.10;80.90;;;;;;2603384;54;20034;31
2022/08/04 12:55:35;;;;;;;4.00;3.70;;;33.00;80.90;;;;;;2702292;39;21112;31
2022/08/04 12:58:15;;;;;;;5.23;3.70;;;32.90;80.10;;;;;;2613253;46;20022;31
2022/08/04 13:01:11;;;;;;;5.55;3.40;;;32.90;80.00;;;;;;2603474;54;20806;31
2022/08/04 13:04:12;;;;;;;3.90;3.55;;;32.80;79.30;;;;;;2603437;54;20885;31
2022/08/04 13:06:47;;;;;;;3.50;3.20;;;32.80;78.90;;;;;;2603266;54;20035;31
2022/08/04 13:09:25;;;;;;;4.03;2.80;;;32.70;80.40;;;;;;2603524;54;20918;31
2022/08/04 13:12:06;;;;;;;7.53;3.28;;;32.70;80.20;;;;;;2603215;54;20026;31
2022/08/04 13:14:44;;;;;;;3.85;3.20;;;32.80;80.20;;;;;;2621747;46;20033;31
2022/08/04 13:17:20;;;;;;;3.65;3.35;;;32.80;80.40;;;;;;2603379;54;20946;31
2022/08/04 13:19:59;;;;;;;4.80;3.67;;;32.80;80.30;;;;;;2613164;46;20037;31
2022/08/04 13:22:34;;;;;;;4.85;3.00;;;32.90;79.90;;;;;;2603065;54;20030;31
2022/08/04 13:25:22;;;;;;;4.70;3.73;;;32.80;79.50;;;;;;2603228;54;20022;31
2022/08/04 13:28:19;;;;;;;6.95;3.72;;;32.90;78.90;;;;;;2603261;54;20129;31
2022/08/04 13:30:56;;;;;;;7.20;3.45;;;32.80;79.90;;;;;;2603247;54;20913;31
2022/08/04 13:33:31;;;;;;;4.90;3.13;;;32.80;79.90;;;;;;2603207;54;20789;31
2022/08/04 13:36:09;;;;;;;3.60;3.30;;;32.80;79.30;;;;;;2608741;46;20902;31
2022/08/04 13:38:50;;;;;;;3.35;3.10;;;32.70;79.00;;;;;;2622058;46;20911;31
2022/08/04 13:41:28;;;;;;;3.70;3.08;;;32.80;79.10;;;;;;2603224;54;20117;31
2022/08/04 13:44:09;;;;;;;3.65;3.30;;;32.80;80.20;;;;;;2603130;54;20030;31
2022/08/04 13:46:55;;;;;;;3.20;2.90;;;32.80;79.30;;;;;;2603050;54;20072;31
2022/08/04 13:49:32;;;;;;;7.55;3.70;;;32.80;79.00;;;;;;2603545;54;20049;31
2022/08/04 13:52:28;;;;;;;5.60;3.38;;;32.80;80.00;;;;;;2602883;54;20910;31
2022/08/04 13:55:02;;;;;;;3.47;3.17;;;32.80;79.50;;;;;;2602954;54;20073;31
2022/08/04 13:57:45;;;;;;;4.80;3.50;;;32.80;78.80;;;;;;2603091;54;20050;31
2022/08/04 14:00:20;;;;;;;4.90;3.08;;;32.80;79.60;;;;;;2603277;54;20089;31
2022/08/04 14:03:06;;;;;;;3.92;3.42;;;32.70;79.70;;;;;;2602940;54;20026;31
2022/08/04 14:06:24;;;;;;;4.37;3.70;;;32.70;79.50;;;;;;2621940;46;20108;31
2022/08/04 14:08:59;;;;;;;8.77;3.78;;;32.60;78.50;;;;;;2701243;39;20426;31
2022/08/04 14:11:36;;;;;;;4.45;3.20;;;32.50;77.50;;;;;;2603302;54;20506;31
2022/08/04 14:14:33;;;;;;;8.65;3.50;;;32.50;78.80;;;;;;2603235;54;20088;31
2022/08/04 14:17:09;;;;;;;6.93;3.97;;;32.50;78.00;;;;;;2602188;54;21003;31
2022/08/04 14:19:55;;;;;;;4.13;3.50;;;32.40;77.80;;;;;;2602915;54;20826;31
2022/08/04 14:22:33;;;;;;;5.68;3.78;;;32.40;78.90;;;;;;2603032;54;20157;31
2022/08/04 14:25:08;;;;;;;5.50;3.60;;;32.40;77.70;;;;;;2602910;54;20909;31
2022/08/04 14:27:50;;;;;;;6.75;3.90;;;32.40;78.10;;;;;;2602478;54;20022;31
2022/08/04 14:30:28;;;;;;;6.45;4.03;;;32.40;78.70;;;;;;2603028;54;20806;31
2022/08/04 14:33:05;;;;;;;4.20;3.67;;;32.40;78.80;;;;;;2603026;54;20078;31
2022/08/04 14:36:00;;;;;;;4.57;4.18;;;32.30;77.80;;;;;;2602848;54;20238;31